createdAt,value
2022-10-17T00:01:18.285Z,17.19
2022-10-17T00:03:46.973Z,17.31
2022-10-17T00:06:16.793Z,17.16
2022-10-17T00:08:45.735Z,17.00
2022-10-17T00:11:17.773Z,17.00
2022-10-17T00:13:46.577Z,17.12
2022-10-17T00:16:15.424Z,17.28
2022-10-17T00:18:45.274Z,17.20
2022-10-17T00:21:17.400Z,17.11
2022-10-17T00:23:46.041Z,17.08
2022-10-17T00:26:15.807Z,17.02
2022-10-17T00:28:44.380Z,16.93
2022-10-17T00:31:12.821Z,16.89
2022-10-17T00:33:41.272Z,16.98
2022-10-17T00:36:14.077Z,17.04
2022-10-17T00:38:43.584Z,17.23
2022-10-17T00:41:14.596Z,17.29
2022-10-17T00:43:56.686Z,17.31
2022-10-17T00:46:27.554Z,17.37
2022-10-17T00:48:57.474Z,17.49
2022-10-17T00:51:34.238Z,17.49
2022-10-17T00:54:04.332Z,17.47
2022-10-17T00:56:33.239Z,17.44
2022-10-17T00:59:02.029Z,17.38
2022-10-17T01:01:30.726Z,17.38
2022-10-17T01:03:59.756Z,17.46
2022-10-17T01:06:29.821Z,17.53
2022-10-17T01:08:58.439Z,17.44
2022-10-17T01:11:38.786Z,17.30
2022-10-17T01:14:14.480Z,17.18
2022-10-17T01:16:49.162Z,17.01
2022-10-17T01:19:57.523Z,17.06
2022-10-17T01:22:32.921Z,17.08
2022-10-17T01:25:20.145Z,17.00
2022-10-17T01:28:08.127Z,17.11
2022-10-17T01:31:04.618Z,17.09
2022-10-17T01:33:45.841Z,17.12
2022-10-17T01:36:27.057Z,17.21
2022-10-17T01:39:02.743Z,17.23
2022-10-17T01:41:40.525Z,17.26
2022-10-17T01:44:14.727Z,17.26
2022-10-17T01:46:49.948Z,17.21
2022-10-17T01:49:23.963Z,17.32
2022-10-17T01:52:00.343Z,17.38
2022-10-17T01:54:34.174Z,17.30
2022-10-17T01:57:08.803Z,17.36
2022-10-17T01:59:41.113Z,17.44
2022-10-17T02:02:12.863Z,17.35
2022-10-17T02:04:42.635Z,17.34
2022-10-17T02:07:13.694Z,17.40
2022-10-17T02:09:42.355Z,17.26
2022-10-17T02:12:35.136Z,17.15
2022-10-17T02:15:30.350Z,17.09
2022-10-17T02:18:13.188Z,17.10
2022-10-17T02:20:50.949Z,17.04
2022-10-17T02:23:28.901Z,17.01
2022-10-17T02:26:06.126Z,17.06
2022-10-17T02:28:44.649Z,17.12
2022-10-17T02:31:18.147Z,17.03
2022-10-17T02:33:52.313Z,17.00
2022-10-17T02:36:25.152Z,17.14
2022-10-17T02:38:55.972Z,17.11
2022-10-17T02:41:26.347Z,17.21
2022-10-17T02:43:57.702Z,17.17
2022-10-17T02:46:31.886Z,17.12
2022-10-17T02:49:04.449Z,16.93
2022-10-17T02:51:41.693Z,16.92
2022-10-17T02:54:18.451Z,16.86
2022-10-17T02:56:51.974Z,16.78
2022-10-17T02:59:24.231Z,16.92
2022-10-17T03:01:53.301Z,16.77
2022-10-17T03:04:23.214Z,16.85
2022-10-17T03:06:51.804Z,16.85
2022-10-17T03:09:20.287Z,16.85
2022-10-17T03:11:48.720Z,16.96
2022-10-17T03:14:17.217Z,16.95
2022-10-17T03:16:45.773Z,16.94
2022-10-17T03:19:15.067Z,16.90
2022-10-17T03:21:44.971Z,17.05
2022-10-17T03:24:14.040Z,16.99
2022-10-17T03:26:42.465Z,17.00
2022-10-17T03:29:11.237Z,17.09
2022-10-17T03:31:40.404Z,17.16
2022-10-17T03:34:09.742Z,17.15
2022-10-17T03:36:38.180Z,17.01
2022-10-17T03:39:08.104Z,16.87
2022-10-17T03:41:36.730Z,16.88
2022-10-17T03:44:05.525Z,16.87
2022-10-17T03:46:34.038Z,16.95
2022-10-17T03:49:02.534Z,17.08
2022-10-17T03:51:31.964Z,17.16
2022-10-17T03:54:04.914Z,17.21
2022-10-17T03:56:34.887Z,17.18
2022-10-17T03:59:13.753Z,17.23
2022-10-17T04:01:44.162Z,17.26
2022-10-17T04:04:13.957Z,17.30
2022-10-17T04:06:42.558Z,17.40
2022-10-17T04:09:12.777Z,17.44
2022-10-17T04:12:06.230Z,17.54
2022-10-17T04:14:36.285Z,17.58
2022-10-17T04:17:05.039Z,17.62
2022-10-17T04:19:34.959Z,17.53
2022-10-17T04:22:04.407Z,17.56
2022-10-17T04:24:36.232Z,17.58
2022-10-17T04:27:12.386Z,17.52
2022-10-17T04:29:45.323Z,17.43
2022-10-17T04:32:23.619Z,17.19
2022-10-17T04:35:05.822Z,17.13
2022-10-17T04:37:35.177Z,17.13
2022-10-17T04:40:10.743Z,17.07
2022-10-17T04:42:40.747Z,17.11
2022-10-17T04:45:11.594Z,17.10
2022-10-17T04:47:40.273Z,17.02
2022-10-17T04:50:09.594Z,17.08
2022-10-17T04:52:38.357Z,17.06
2022-10-17T04:55:07.820Z,17.07
2022-10-17T04:57:37.090Z,17.11
2022-10-17T05:00:19.975Z,17.06
2022-10-17T05:06:00.107Z,17.19
2022-10-17T05:08:28.620Z,17.13
2022-10-17T05:10:57.105Z,17.21
2022-10-17T05:13:25.631Z,17.22
2022-10-17T05:15:59.321Z,17.18
2022-10-17T05:18:28.257Z,17.15
2022-10-17T05:20:57.388Z,17.11
2022-10-17T05:23:26.294Z,17.13
2022-10-17T05:25:58.188Z,17.10
2022-10-17T05:28:28.691Z,17.09
2022-10-17T05:31:05.564Z,17.09
2022-10-17T05:33:34.403Z,17.15
2022-10-17T05:36:03.225Z,17.07
2022-10-17T05:38:31.769Z,17.07
2022-10-17T05:41:00.852Z,17.11
2022-10-17T05:43:30.529Z,17.09
2022-10-17T05:45:59.094Z,17.09
2022-10-17T05:48:30.412Z,17.14
2022-10-17T05:51:01.024Z,17.24
2022-10-17T05:53:32.294Z,17.31
2022-10-17T05:56:07.176Z,17.38
2022-10-17T05:58:49.690Z,17.26
2022-10-17T06:01:30.919Z,17.39
2022-10-17T06:04:00.973Z,17.35
2022-10-17T06:06:29.460Z,17.21
2022-10-17T06:08:58.005Z,17.23
2022-10-17T06:11:31.841Z,17.16
2022-10-17T06:14:01.089Z,17.04
2022-10-17T06:16:30.874Z,16.97
2022-10-17T06:19:00.783Z,16.95
2022-10-17T06:21:29.659Z,16.95
2022-10-17T06:24:08.086Z,16.91
2022-10-17T06:26:38.655Z,16.83
2022-10-17T06:29:09.362Z,16.86
2022-10-17T06:31:44.679Z,16.80
2022-10-17T06:34:14.961Z,16.90
2022-10-17T06:36:43.700Z,17.06
2022-10-17T06:39:12.965Z,17.12
2022-10-17T06:41:51.325Z,17.13
2022-10-17T06:44:22.379Z,17.29
2022-10-17T06:46:58.186Z,17.25
2022-10-17T06:49:28.615Z,17.31
2022-10-17T06:52:35.824Z,17.29
2022-10-17T06:55:43.053Z,17.42
2022-10-17T06:58:25.052Z,17.39
2022-10-17T07:01:26.733Z,17.58
2022-10-17T07:03:58.982Z,17.62
2022-10-17T07:06:29.180Z,17.60
2022-10-17T07:09:02.774Z,17.60
2022-10-17T07:11:31.251Z,17.58
2022-10-17T07:14:00.093Z,17.56
2022-10-17T07:16:28.767Z,17.57
2022-10-17T07:19:04.934Z,17.55
2022-10-17T07:21:39.347Z,17.67
2022-10-17T07:24:10.104Z,17.80
2022-10-17T07:26:39.767Z,17.88
2022-10-17T07:29:08.598Z,17.88
2022-10-17T07:31:41.527Z,17.77
2022-10-17T07:34:10.181Z,17.74
2022-10-17T07:36:40.172Z,17.85
2022-10-17T07:39:09.634Z,17.97
2022-10-17T07:41:39.632Z,18.09
2022-10-17T07:44:08.711Z,18.09
2022-10-17T07:46:43.475Z,18.10
2022-10-17T07:49:14.875Z,18.52
2022-10-17T07:51:44.853Z,18.56
2022-10-17T07:54:14.152Z,18.51
2022-10-17T07:56:42.562Z,18.88
2022-10-17T07:59:11.191Z,19.03
2022-10-17T08:01:39.615Z,19.57
2022-10-17T08:04:08.049Z,19.93
2022-10-17T08:06:36.511Z,20.62
2022-10-17T08:09:07.011Z,21.19
2022-10-17T08:11:36.642Z,21.63
2022-10-17T08:14:05.156Z,21.29
2022-10-17T08:16:33.616Z,21.31
2022-10-17T08:19:02.641Z,21.57
2022-10-17T08:21:31.363Z,21.74
2022-10-17T08:24:00.197Z,21.81
2022-10-17T08:26:30.808Z,22.33
2022-10-17T08:28:59.506Z,22.71
2022-10-17T08:31:28.443Z,22.97
2022-10-17T08:33:56.980Z,23.06
2022-10-17T08:36:25.718Z,23.14
2022-10-17T08:38:54.159Z,23.23
2022-10-17T08:41:37.718Z,23.20
2022-10-17T08:44:16.613Z,23.40
2022-10-17T08:46:49.311Z,23.69
2022-10-17T08:49:23.009Z,24.03
2022-10-17T08:51:55.856Z,24.16
2022-10-17T08:54:33.332Z,24.03
2022-10-17T08:57:03.276Z,23.98
2022-10-17T08:59:33.575Z,24.07
2022-10-17T09:02:05.473Z,24.12
2022-10-17T09:04:56.439Z,24.08
2022-10-17T09:07:33.793Z,23.73
2022-10-17T09:10:11.732Z,23.63
2022-10-17T09:12:50.232Z,23.29
2022-10-17T09:15:39.000Z,24.12
2022-10-17T09:18:12.932Z,23.67
2022-10-17T09:20:46.882Z,23.24
2022-10-17T09:23:19.814Z,22.78
2022-10-17T09:25:51.266Z,23.05
2022-10-17T09:28:27.156Z,23.48
2022-10-17T09:31:00.822Z,24.19
2022-10-17T09:33:42.274Z,23.18
2022-10-17T09:36:24.214Z,22.72
2022-10-17T09:38:55.776Z,22.39
2022-10-17T09:41:44.717Z,22.28
2022-10-17T09:44:21.989Z,22.08
2022-10-17T09:47:24.388Z,21.68
2022-10-17T09:49:53.382Z,21.75
2022-10-17T09:52:26.431Z,21.79
2022-10-17T09:54:59.097Z,21.87
2022-10-17T09:57:27.625Z,22.02
2022-10-17T10:00:02.484Z,22.03
2022-10-17T10:02:33.708Z,22.26
2022-10-17T10:05:06.302Z,22.52
2022-10-17T10:07:38.514Z,22.84
2022-10-17T10:10:15.640Z,23.00
2022-10-17T10:13:03.758Z,22.99
2022-10-17T10:15:37.907Z,23.04
2022-10-17T10:21:10.093Z,22.79
2022-10-17T10:23:41.202Z,22.75
2022-10-17T10:26:25.041Z,23.30
2022-10-17T10:28:58.344Z,24.35
2022-10-17T10:31:36.981Z,24.80
2022-10-17T10:34:17.538Z,25.11
2022-10-17T10:36:50.032Z,25.14
2022-10-17T10:39:37.406Z,25.81
2022-10-17T10:42:10.362Z,24.92
2022-10-17T10:44:42.186Z,25.80
2022-10-17T10:47:24.727Z,24.47
2022-10-17T10:50:07.482Z,24.45
2022-10-17T10:52:42.775Z,25.94
2022-10-17T10:55:26.657Z,26.99
2022-10-17T10:57:59.649Z,25.42
2022-10-17T11:00:31.016Z,25.27
2022-10-17T11:03:12.835Z,25.73
2022-10-17T11:05:47.498Z,24.47
2022-10-17T11:08:25.783Z,24.42
2022-10-17T11:11:18.168Z,23.70
2022-10-17T11:13:54.069Z,23.28
2022-10-17T11:16:32.462Z,23.30
2022-10-17T11:19:13.576Z,23.50
2022-10-17T11:21:48.618Z,24.01
2022-10-17T11:24:24.834Z,24.08
2022-10-17T11:27:00.176Z,24.50
2022-10-17T11:29:32.317Z,24.76
2022-10-17T11:32:07.150Z,25.05
2022-10-17T11:34:42.995Z,24.76
2022-10-17T11:37:16.458Z,25.06
2022-10-17T11:39:50.014Z,25.53
2022-10-17T11:42:24.932Z,25.23
2022-10-17T11:44:58.167Z,26.06
2022-10-17T11:47:38.472Z,25.58
2022-10-17T11:53:15.398Z,26.73
2022-10-17T11:55:45.527Z,26.45
2022-10-17T11:58:37.691Z,25.16
2022-10-17T12:01:16.714Z,25.22
2022-10-17T12:03:54.437Z,26.50
2022-10-17T12:06:43.696Z,26.44
2022-10-17T12:09:25.320Z,26.02
2022-10-17T12:11:57.120Z,25.77
2022-10-17T12:14:41.276Z,26.10
2022-10-17T12:17:29.296Z,25.81
2022-10-17T12:20:27.412Z,24.66
2022-10-17T12:23:00.338Z,24.44
2022-10-17T12:25:31.633Z,24.00
2022-10-17T12:28:13.434Z,23.73
2022-10-17T12:30:55.169Z,24.19
2022-10-17T12:33:39.732Z,23.89
2022-10-17T12:36:44.869Z,24.01
2022-10-17T12:39:52.428Z,24.35
2022-10-17T12:42:52.313Z,24.75
2022-10-17T12:45:49.210Z,24.24
2022-10-17T12:48:57.083Z,24.56
2022-10-17T12:51:40.745Z,24.20
2022-10-17T12:54:13.667Z,24.23
2022-10-17T12:56:44.804Z,24.40
2022-10-17T12:59:18.933Z,24.86
2022-10-17T13:01:50.885Z,25.07
2022-10-17T13:04:19.690Z,25.27
2022-10-17T13:06:50.531Z,25.20
2022-10-17T13:09:25.707Z,25.11
2022-10-17T13:11:55.408Z,25.19
2022-10-17T13:14:27.043Z,25.06
2022-10-17T13:16:57.625Z,25.27
2022-10-17T13:19:29.781Z,24.86
2022-10-17T13:22:06.330Z,25.22
2022-10-17T13:24:37.404Z,24.97
2022-10-17T13:27:07.274Z,24.78
2022-10-17T13:29:45.185Z,24.33
2022-10-17T13:32:13.987Z,24.38
2022-10-17T13:34:42.434Z,24.83
2022-10-17T13:37:16.626Z,25.04
2022-10-17T13:40:00.297Z,24.94
2022-10-17T13:42:40.508Z,24.94
2022-10-17T13:45:20.245Z,24.78
2022-10-17T13:47:49.423Z,24.47
2022-10-17T13:50:44.085Z,24.31
2022-10-17T13:53:25.690Z,23.64
2022-10-17T13:56:22.952Z,23.98
2022-10-17T13:58:50.228Z,23.73
2022-10-17T14:01:21.917Z,23.96
2022-10-17T14:04:02.026Z,23.94
2022-10-17T14:06:45.096Z,24.27
2022-10-17T14:09:23.970Z,24.96
2022-10-17T14:12:02.011Z,25.17
2022-10-17T14:14:46.181Z,25.13
2022-10-17T14:17:26.137Z,25.22
2022-10-17T14:20:26.261Z,25.09
2022-10-17T14:23:04.394Z,25.45
2022-10-17T14:25:37.943Z,25.80
2022-10-17T14:28:15.955Z,26.03
2022-10-17T14:31:01.152Z,26.46
2022-10-17T14:33:33.900Z,25.98
2022-10-17T14:36:05.691Z,24.92
2022-10-17T14:38:36.049Z,24.67
2022-10-17T14:41:37.742Z,24.38
2022-10-17T14:44:03.280Z,24.14
2022-10-17T14:46:32.075Z,24.20
2022-10-17T14:49:07.138Z,24.44
2022-10-17T14:51:50.251Z,24.66
2022-10-17T14:54:29.249Z,24.95
2022-10-17T14:56:57.673Z,24.91
2022-10-17T14:59:52.349Z,24.86
2022-10-17T15:02:14.972Z,25.12
2022-10-17T15:04:44.829Z,24.78
2022-10-17T15:07:16.420Z,25.08
2022-10-17T15:09:46.147Z,25.04
2022-10-17T15:12:17.070Z,25.27
2022-10-17T15:14:45.922Z,25.39
2022-10-17T15:17:16.859Z,25.23
2022-10-17T15:19:46.818Z,25.09
2022-10-17T15:22:16.342Z,25.05
2022-10-17T15:24:46.303Z,24.95
2022-10-17T15:27:19.726Z,24.70
2022-10-17T15:29:48.918Z,24.47
2022-10-17T15:32:18.384Z,24.31
2022-10-17T15:34:48.282Z,24.30
2022-10-17T15:37:21.023Z,24.15
2022-10-17T15:39:53.725Z,24.24
2022-10-17T15:42:23.449Z,24.10
2022-10-17T15:44:52.138Z,23.80
2022-10-17T15:47:26.309Z,23.85
2022-10-17T15:49:56.430Z,23.80
2022-10-17T15:52:25.935Z,23.96
2022-10-17T15:54:56.509Z,24.01
2022-10-17T15:57:29.859Z,24.10
2022-10-17T16:00:00.937Z,24.16
2022-10-17T16:02:29.553Z,24.10
2022-10-17T16:04:59.381Z,24.11
2022-10-17T16:07:28.004Z,24.05
2022-10-17T16:09:56.640Z,24.21
2022-10-17T16:12:31.262Z,24.29
2022-10-17T16:14:59.917Z,24.36
2022-10-17T16:17:28.574Z,24.29
2022-10-17T16:19:57.221Z,24.26
2022-10-17T16:22:32.540Z,24.30
2022-10-17T16:25:08.003Z,24.20
2022-10-17T16:27:36.541Z,24.08
2022-10-17T16:30:06.685Z,23.93
2022-10-17T16:32:35.596Z,23.91
2022-10-17T16:35:04.197Z,23.86
2022-10-17T16:37:34.102Z,23.96
2022-10-17T16:40:02.542Z,23.96
2022-10-17T16:42:31.135Z,23.80
2022-10-17T16:45:00.160Z,23.70
2022-10-17T16:47:28.602Z,23.72
2022-10-17T16:49:57.291Z,23.72
2022-10-17T16:52:25.702Z,23.72
2022-10-17T16:54:55.509Z,23.73
2022-10-17T16:57:24.513Z,23.53
2022-10-17T16:59:53.341Z,23.39
2022-10-17T17:02:21.845Z,23.30
2022-10-17T17:04:50.367Z,23.19
2022-10-17T17:07:20.012Z,23.08
2022-10-17T17:09:49.042Z,23.02
2022-10-17T17:12:18.928Z,22.93
2022-10-17T17:14:47.424Z,22.83
2022-10-17T17:17:24.647Z,22.66
2022-10-17T17:20:04.936Z,22.52
2022-10-17T17:22:33.423Z,22.42
2022-10-17T17:25:01.936Z,22.35
2022-10-17T17:27:32.185Z,22.36
2022-10-17T17:30:00.760Z,22.30
2022-10-17T17:32:29.199Z,22.19
2022-10-17T17:34:57.654Z,22.14
2022-10-17T17:37:26.589Z,22.06
2022-10-17T17:39:55.189Z,21.92
2022-10-17T17:42:23.700Z,21.86
2022-10-17T17:44:53.537Z,21.71
2022-10-17T17:47:22.712Z,21.57
2022-10-17T17:49:51.398Z,21.54
2022-10-17T17:52:20.246Z,21.44
2022-10-17T17:54:48.660Z,21.33
2022-10-17T17:57:18.308Z,21.13
2022-10-17T17:59:48.631Z,21.03
2022-10-17T18:02:18.833Z,20.94
2022-10-17T18:04:47.476Z,20.79
2022-10-17T18:07:15.923Z,20.57
2022-10-17T18:09:44.420Z,20.33
2022-10-17T18:12:12.910Z,20.32
2022-10-17T18:14:41.636Z,20.23
2022-10-17T18:17:10.139Z,20.00
2022-10-17T18:19:40.065Z,20.01
2022-10-17T18:22:08.447Z,19.93
2022-10-17T18:24:36.996Z,19.93
2022-10-17T18:27:05.626Z,19.98
2022-10-17T18:29:34.529Z,20.00
2022-10-17T18:32:03.059Z,19.84
2022-10-17T18:34:31.525Z,19.84
2022-10-17T18:37:02.730Z,19.71
2022-10-17T18:39:31.246Z,19.68
2022-10-17T18:42:00.023Z,19.63
2022-10-17T18:44:28.739Z,19.61
2022-10-17T18:47:02.999Z,19.53
2022-10-17T18:49:33.088Z,19.55
2022-10-17T18:52:02.961Z,19.45
2022-10-17T18:54:33.563Z,19.53
2022-10-17T18:57:02.126Z,19.56
2022-10-17T18:59:30.554Z,19.53
2022-10-17T19:01:59.065Z,19.42
2022-10-17T19:04:27.884Z,19.38
2022-10-17T19:06:56.388Z,19.31
2022-10-17T19:09:26.515Z,19.27
2022-10-17T19:11:55.352Z,18.95
2022-10-17T19:14:23.789Z,18.83
2022-10-17T19:16:52.536Z,18.71
2022-10-17T19:19:22.983Z,18.63
2022-10-17T19:21:51.877Z,18.51
2022-10-17T19:24:22.027Z,18.44
2022-10-17T19:26:53.829Z,18.36
2022-10-17T19:29:24.374Z,18.38
2022-10-17T19:31:53.528Z,18.28
2022-10-17T19:34:22.025Z,18.32
2022-10-17T19:36:50.684Z,18.42
2022-10-17T19:39:22.815Z,18.32
2022-10-17T19:41:53.072Z,18.44
2022-10-17T19:44:21.528Z,18.47
2022-10-17T19:46:49.971Z,18.44
2022-10-17T19:49:19.082Z,18.48
2022-10-17T19:51:47.838Z,18.48
2022-10-17T19:54:18.799Z,18.48
2022-10-17T19:56:47.372Z,18.44
2022-10-17T19:59:18.439Z,18.35
2022-10-17T20:01:47.459Z,18.16
2022-10-17T20:04:15.995Z,18.15
2022-10-17T20:06:44.493Z,18.02
2022-10-17T20:09:16.711Z,17.92
2022-10-17T20:11:50.387Z,17.83
2022-10-17T20:14:20.191Z,17.86
2022-10-17T20:16:53.225Z,17.88
2022-10-17T20:19:22.014Z,17.86
2022-10-17T20:21:50.488Z,17.75
2022-10-17T20:24:19.041Z,17.72
2022-10-17T20:26:47.588Z,17.70
2022-10-17T20:29:23.709Z,17.65
2022-10-17T20:31:53.506Z,17.51
2022-10-17T20:34:21.919Z,17.43
2022-10-17T20:36:50.747Z,17.43
2022-10-17T20:39:35.332Z,17.41
2022-10-17T20:42:03.880Z,17.33
2022-10-17T20:44:32.565Z,17.32
2022-10-17T20:47:02.967Z,17.42
2022-10-17T20:49:33.497Z,17.35
2022-10-17T20:52:02.558Z,17.39
2022-10-17T20:54:32.506Z,17.41
2022-10-17T20:57:04.053Z,17.36
2022-10-17T20:59:34.430Z,17.41
2022-10-17T21:02:04.848Z,17.46
2022-10-17T21:04:46.290Z,17.35
2022-10-17T21:07:16.082Z,17.27
2022-10-17T21:09:45.530Z,17.18
2022-10-17T21:12:21.637Z,17.05
2022-10-17T21:14:59.983Z,16.97
2022-10-17T21:17:29.968Z,17.03
2022-10-17T21:19:58.983Z,16.87
2022-10-17T21:22:27.555Z,16.89
2022-10-17T21:24:56.680Z,16.97
2022-10-17T21:27:25.104Z,16.89
2022-10-17T21:29:53.615Z,16.95
2022-10-17T21:32:33.475Z,16.89
2022-10-17T21:35:10.628Z,16.68
2022-10-17T21:37:39.108Z,16.54
2022-10-17T21:40:08.819Z,16.35
2022-10-17T21:42:37.291Z,16.28
2022-10-17T21:45:15.357Z,16.30
2022-10-17T21:48:11.631Z,16.21
2022-10-17T21:50:38.515Z,16.19
2022-10-17T21:53:07.173Z,16.19
2022-10-17T21:55:38.519Z,16.24
2022-10-17T21:58:07.192Z,16.36
2022-10-17T22:00:35.614Z,16.38
2022-10-17T22:03:04.208Z,16.41
2022-10-17T22:05:32.738Z,16.20
2022-10-17T22:08:02.878Z,16.11
2022-10-17T22:10:31.391Z,16.07
2022-10-17T22:12:59.923Z,16.04
2022-10-17T22:15:28.343Z,15.94
2022-10-17T22:17:57.347Z,15.96
2022-10-17T22:20:25.949Z,15.99
2022-10-17T22:22:54.390Z,16.10
2022-10-17T22:25:48.280Z,16.21
2022-10-17T22:28:20.054Z,16.22
2022-10-17T22:30:48.583Z,16.17
2022-10-17T22:33:17.094Z,16.15
2022-10-17T22:35:52.535Z,16.01
2022-10-17T22:38:21.007Z,16.04
2022-10-17T22:40:50.905Z,15.98
2022-10-17T22:43:19.308Z,15.88
2022-10-17T22:45:53.654Z,15.92
2022-10-17T22:48:22.325Z,16.03
2022-10-17T22:50:51.330Z,16.04
2022-10-17T22:53:24.062Z,16.07
2022-10-17T22:55:54.942Z,16.13
2022-10-17T22:58:24.512Z,16.12
2022-10-17T23:00:53.967Z,16.17
2022-10-17T23:03:24.214Z,16.22
2022-10-17T23:05:52.836Z,15.81
2022-10-17T23:08:21.883Z,15.62
2022-10-17T23:10:50.502Z,15.49
2022-10-17T23:13:21.424Z,15.45
2022-10-17T23:15:52.923Z,15.63
2022-10-17T23:18:22.781Z,15.46
2022-10-17T23:20:51.745Z,15.51
2022-10-17T23:23:20.915Z,15.56
2022-10-17T23:25:49.909Z,15.50
2022-10-17T23:28:19.785Z,15.32
2022-10-17T23:30:48.282Z,15.28
2022-10-17T23:33:16.782Z,15.23
2022-10-17T23:35:45.428Z,15.37
2022-10-17T23:38:13.914Z,15.47
2022-10-17T23:40:42.414Z,15.42
2022-10-17T23:43:10.844Z,15.45
2022-10-17T23:48:14.065Z,15.66
2022-10-17T23:50:42.533Z,15.67
2022-10-17T23:53:11.070Z,15.63
2022-10-17T23:55:39.834Z,15.65
2022-10-17T23:58:08.310Z,15.59
